createdAt,value
2022-11-16T00:01:49.260Z,43.20
2022-11-16T00:04:17.181Z,43.20
2022-11-16T00:06:46.617Z,43.20
2022-11-16T00:09:23.849Z,43.30
2022-11-16T00:11:54.843Z,43.30
2022-11-16T00:14:24.755Z,43.30
2022-11-16T00:16:52.808Z,43.40
2022-11-16T00:19:23.389Z,43.50
2022-11-16T00:21:51.643Z,43.50
2022-11-16T00:24:21.325Z,43.40
2022-11-16T00:26:50.058Z,43.50
2022-11-16T00:29:20.854Z,43.50
2022-11-16T00:31:49.706Z,43.50
2022-11-16T00:34:18.555Z,43.60
2022-11-16T00:36:47.072Z,43.60
2022-11-16T00:39:16.433Z,43.70
2022-11-16T00:41:46.587Z,43.80
2022-11-16T00:44:14.892Z,43.70
2022-11-16T00:46:43.256Z,43.70
2022-11-16T00:49:11.155Z,43.70
2022-11-16T00:51:39.133Z,43.70
2022-11-16T00:54:08.950Z,43.70
2022-11-16T00:56:38.496Z,43.80
2022-11-16T00:59:07.708Z,43.80
2022-11-16T01:01:35.627Z,43.80
2022-11-16T01:04:03.390Z,43.90
2022-11-16T01:06:31.152Z,43.90
2022-11-16T01:09:01.534Z,43.90
2022-11-16T01:11:47.774Z,43.80
2022-11-16T01:14:15.611Z,43.80
2022-11-16T01:16:44.586Z,43.70
2022-11-16T01:19:12.329Z,43.60
2022-11-16T01:21:40.103Z,43.60
2022-11-16T01:24:07.813Z,43.60
2022-11-16T01:26:35.545Z,43.50
2022-11-16T01:29:03.560Z,43.50
2022-11-16T01:31:35.612Z,43.60
2022-11-16T01:34:04.702Z,43.60
2022-11-16T01:36:33.276Z,43.60
2022-11-16T01:39:04.926Z,43.70
2022-11-16T01:41:44.267Z,43.70
2022-11-16T01:44:33.650Z,43.80
2022-11-16T01:47:12.107Z,43.80
2022-11-16T01:49:47.041Z,43.80
2022-11-16T01:52:20.540Z,43.80
2022-11-16T01:54:51.411Z,43.80
2022-11-16T01:57:24.680Z,43.80
2022-11-16T02:00:07.242Z,43.80
2022-11-16T02:02:53.574Z,43.80
2022-11-16T02:06:03.636Z,43.70
2022-11-16T02:09:35.081Z,43.70
2022-11-16T02:12:26.920Z,43.80
2022-11-16T02:15:25.966Z,43.80
2022-11-16T02:18:21.216Z,43.70
2022-11-16T02:21:11.915Z,43.70
2022-11-16T02:23:58.669Z,43.80
2022-11-16T02:26:38.217Z,43.70
2022-11-16T02:29:23.220Z,43.70
2022-11-16T02:32:03.136Z,43.70
2022-11-16T02:34:39.991Z,43.70
2022-11-16T02:37:12.817Z,43.80
2022-11-16T02:39:44.374Z,43.80
2022-11-16T02:42:18.049Z,43.80
2022-11-16T02:44:49.348Z,43.90
2022-11-16T02:47:24.891Z,43.90
2022-11-16T02:49:58.270Z,43.90
2022-11-16T02:52:28.627Z,43.90
2022-11-16T02:54:56.641Z,43.90
2022-11-16T02:57:49.680Z,43.90
2022-11-16T03:00:30.794Z,43.80
2022-11-16T03:03:01.336Z,43.60
2022-11-16T03:05:40.199Z,43.40
2022-11-16T03:08:27.645Z,43.30
2022-11-16T03:11:23.386Z,43.20
2022-11-16T03:13:54.108Z,43.00
2022-11-16T03:16:22.136Z,42.90
2022-11-16T03:18:53.475Z,42.80
2022-11-16T03:21:59.655Z,42.70
2022-11-16T03:24:27.564Z,42.50
2022-11-16T03:27:05.557Z,42.50
2022-11-16T03:29:57.842Z,42.40
2022-11-16T03:32:43.652Z,42.30
2022-11-16T03:35:35.489Z,42.30
2022-11-16T03:38:05.428Z,42.30
2022-11-16T03:40:36.310Z,42.20
2022-11-16T03:43:08.099Z,42.10
2022-11-16T03:45:36.707Z,42.10
2022-11-16T03:48:07.331Z,42.00
2022-11-16T03:50:36.110Z,42.00
2022-11-16T03:53:03.987Z,41.90
2022-11-16T03:55:32.101Z,41.80
2022-11-16T03:57:59.925Z,41.60
2022-11-16T04:00:27.746Z,41.60
2022-11-16T04:02:55.809Z,41.50
2022-11-16T04:05:44.243Z,41.50
2022-11-16T04:08:35.383Z,41.50
2022-11-16T04:11:22.937Z,41.50
2022-11-16T04:14:10.803Z,41.50
2022-11-16T04:17:00.651Z,41.40
2022-11-16T04:19:47.369Z,41.30
2022-11-16T04:22:55.207Z,41.30
2022-11-16T04:25:27.160Z,41.20
2022-11-16T04:28:15.946Z,41.10
2022-11-16T04:31:17.255Z,41.00
2022-11-16T04:34:11.030Z,41.00
2022-11-16T04:37:02.772Z,41.00
2022-11-16T04:39:31.359Z,41.00
2022-11-16T04:42:19.922Z,40.90
2022-11-16T04:45:09.805Z,40.90
2022-11-16T04:47:44.935Z,40.80
2022-11-16T04:50:13.240Z,40.80
2022-11-16T04:52:42.768Z,40.60
2022-11-16T04:55:13.670Z,40.50
2022-11-16T04:57:41.713Z,40.60
2022-11-16T05:00:10.545Z,40.40
2022-11-16T05:02:40.484Z,40.50
2022-11-16T05:05:09.425Z,40.30
2022-11-16T05:07:39.466Z,40.50
2022-11-16T05:10:16.248Z,40.50
2022-11-16T05:12:44.368Z,40.60
2022-11-16T05:15:12.413Z,40.50
2022-11-16T05:17:40.590Z,40.50
2022-11-16T05:20:32.748Z,40.60
2022-11-16T05:23:04.527Z,40.60
2022-11-16T05:25:37.685Z,40.50
2022-11-16T05:28:11.772Z,40.50
2022-11-16T05:30:46.081Z,40.60
2022-11-16T05:33:18.697Z,40.50
2022-11-16T05:35:49.171Z,40.40
2022-11-16T05:38:17.810Z,40.40
2022-11-16T05:40:48.842Z,40.30
2022-11-16T05:43:19.048Z,40.30
2022-11-16T05:45:57.424Z,40.30
2022-11-16T05:48:25.661Z,40.20
2022-11-16T05:50:59.076Z,40.20
2022-11-16T05:53:27.883Z,40.20
2022-11-16T05:55:55.965Z,40.10
2022-11-16T05:58:25.171Z,40.10
2022-11-16T06:00:53.260Z,40.10
2022-11-16T06:03:21.564Z,40.00
2022-11-16T06:05:53.299Z,39.90
2022-11-16T06:08:21.685Z,39.90
2022-11-16T06:10:53.128Z,39.80
2022-11-16T06:13:21.241Z,39.80
2022-11-16T06:15:52.114Z,39.60
2022-11-16T06:18:20.320Z,39.50
2022-11-16T06:20:49.725Z,39.50
2022-11-16T06:23:20.601Z,39.50
2022-11-16T06:25:56.537Z,39.30
2022-11-16T06:28:27.573Z,39.30
2022-11-16T06:30:56.817Z,39.20
2022-11-16T06:33:32.212Z,39.10
2022-11-16T06:36:03.834Z,39.00
2022-11-16T06:38:33.096Z,36.50
2022-11-16T06:41:01.717Z,35.40
2022-11-16T06:43:31.170Z,34.90
2022-11-16T06:46:01.086Z,36.10
2022-11-16T06:48:31.116Z,37.10
2022-11-16T06:50:59.522Z,37.30
2022-11-16T06:53:29.385Z,37.40
2022-11-16T06:56:04.876Z,37.40
2022-11-16T06:58:37.323Z,37.60
2022-11-16T07:01:11.631Z,37.60
2022-11-16T07:03:42.001Z,38.10
2022-11-16T07:06:12.905Z,38.20
2022-11-16T07:08:43.506Z,38.20
2022-11-16T07:11:12.986Z,38.30
2022-11-16T07:13:41.041Z,38.50
2022-11-16T07:16:11.717Z,38.50
2022-11-16T07:18:44.823Z,38.50
2022-11-16T07:21:16.988Z,38.80
2022-11-16T07:23:46.166Z,38.70
2022-11-16T07:26:19.396Z,38.90
2022-11-16T07:28:53.158Z,39.10
2022-11-16T07:31:23.201Z,39.20
2022-11-16T07:34:11.199Z,39.30
2022-11-16T07:36:48.221Z,39.30
2022-11-16T07:39:17.446Z,39.50
2022-11-16T07:41:47.190Z,39.50
2022-11-16T07:44:27.333Z,39.50
2022-11-16T07:47:14.576Z,39.60
2022-11-16T07:49:42.838Z,39.60
2022-11-16T07:52:19.678Z,39.70
2022-11-16T07:54:59.670Z,39.70
2022-11-16T07:57:29.440Z,39.80
2022-11-16T08:00:00.863Z,39.70
2022-11-16T08:02:32.001Z,39.70
2022-11-16T08:05:00.577Z,39.60
2022-11-16T08:07:30.412Z,39.60
2022-11-16T08:09:59.208Z,39.50
2022-11-16T08:12:27.263Z,39.60
2022-11-16T08:14:56.078Z,39.60
2022-11-16T08:17:25.074Z,39.70
2022-11-16T08:19:54.684Z,39.70
2022-11-16T08:22:23.267Z,39.70
2022-11-16T08:24:51.123Z,39.80
2022-11-16T08:27:19.029Z,39.80
2022-11-16T08:30:19.850Z,39.80
2022-11-16T08:32:49.354Z,39.80
2022-11-16T08:35:18.476Z,39.70
2022-11-16T08:37:46.754Z,39.80
2022-11-16T08:40:15.214Z,39.80
2022-11-16T08:42:44.143Z,39.90
2022-11-16T08:45:13.304Z,39.90
2022-11-16T08:47:42.351Z,39.90
2022-11-16T08:50:10.361Z,39.90
2022-11-16T08:52:38.716Z,40.00
2022-11-16T08:55:06.950Z,40.00
2022-11-16T08:57:34.998Z,39.90
2022-11-16T09:00:08.083Z,40.00
2022-11-16T09:02:35.842Z,40.20
2022-11-16T09:05:04.895Z,40.10
2022-11-16T09:07:32.930Z,40.20
2022-11-16T09:10:00.903Z,40.10
2022-11-16T09:12:28.870Z,40.20
2022-11-16T09:14:56.884Z,40.20
2022-11-16T09:17:24.574Z,40.10
2022-11-16T09:19:52.502Z,40.10
2022-11-16T09:22:20.663Z,39.90
2022-11-16T09:24:48.761Z,39.90
2022-11-16T09:27:17.058Z,39.80
2022-11-16T09:29:44.890Z,39.80
2022-11-16T09:32:12.862Z,39.90
2022-11-16T09:34:41.165Z,39.80
2022-11-16T09:37:09.280Z,39.80
2022-11-16T09:39:37.271Z,39.70
2022-11-16T09:42:42.439Z,39.70
2022-11-16T09:45:46.349Z,39.80
2022-11-16T09:48:16.060Z,39.80
2022-11-16T09:51:08.324Z,39.80
2022-11-16T09:53:44.799Z,39.80
2022-11-16T09:56:25.599Z,39.80
2022-11-16T09:59:03.293Z,39.80
2022-11-16T10:01:47.232Z,39.80
2022-11-16T10:04:38.747Z,40.00
2022-11-16T10:07:30.123Z,40.00
2022-11-16T10:09:58.564Z,39.90
2022-11-16T10:12:43.718Z,40.00
2022-11-16T10:15:28.543Z,40.00
2022-11-16T10:18:03.855Z,40.00
